Time;durP1;ratioP1;P1;durP2;ratioP2;P2;SDS_P1;SDS_P2;PMS_P1;PMS_P2;Temp;Humidity;BMP_temperature;BMP_pressure;BME280_temperature;BME280_humidity;BME280_pressure;Samples;Min_cycle;Max_cycle;Signal;HPM_P1;HPM_P2
2022/09/27 00:01:23;;;;;;;7.53;3.10;;;;;;;;;;5008655;28;20030;-78
2022/09/27 00:03:49;;;;;;;5.93;2.58;;;;;;;;;;5008438;28;20103;-78
2022/09/27 00:06:15;;;;;;;6.35;2.97;;;;;;;;;;5009378;28;20099;-78
2022/09/27 00:08:41;;;;;;;7.10;2.75;;;;;;;;;;5012468;28;20034;-78
2022/09/27 00:11:12;;;;;;;5.22;2.58;;;;;;;;;;5012797;28;20038;-78
2022/09/27 00:13:38;;;;;;;6.87;3.10;;;;;;;;;;5012888;28;20072;-78
2022/09/27 00:16:05;;;;;;;8.13;2.45;;;;;;;;;;5012179;28;20041;-78
2022/09/27 00:18:31;;;;;;;3.80;1.60;;;;;;;;;;5011871;28;20034;-78
2022/09/27 00:21:03;;;;;;;7.57;2.22;;;;;;;;;;5011754;28;20033;-78
2022/09/27 00:23:29;;;;;;;3.55;1.50;;;;;;;;;;4997257;28;20049;-78
2022/09/27 00:25:59;;;;;;;4.75;1.83;;;;;;;;;;5000997;28;20037;-78
2022/09/27 00:28:25;;;;;;;5.85;2.00;;;;;;;;;;5011071;28;20399;-78
2022/09/27 00:30:52;;;;;;;7.90;1.90;;;;;;;;;;5012451;28;20078;-78
2022/09/27 00:33:18;;;;;;;5.25;1.80;;;;;;;;;;4999686;28;20017;-78
2022/09/27 00:35:44;;;;;;;5.05;1.90;;;;;;;;;;5005696;28;20048;-78
2022/09/27 00:38:11;;;;;;;6.63;1.83;;;;;;;;;;5010430;28;20030;-78
2022/09/27 00:40:38;;;;;;;7.05;1.60;;;;;;;;;;5011943;28;20040;-78
2022/09/27 00:43:13;;;;;;;7.22;2.00;;;;;;;;;;5009277;28;20030;-78
2022/09/27 00:45:39;;;;;;;7.00;3.05;;;;;;;;;;5010012;28;20038;-78
2022/09/27 00:48:05;;;;;;;8.73;3.15;;;;;;;;;;5000918;28;20467;-78
2022/09/27 00:50:34;;;;;;;6.13;2.60;;;;;;;;;;5010595;28;20383;-78
2022/09/27 00:53:09;;;;;;;4.00;1.65;;;;;;;;;;5012102;28;20026;-78
2022/09/27 00:55:41;;;;;;;3.25;1.20;;;;;;;;;;5006379;28;20491;-78
2022/09/27 00:58:08;;;;;;;5.07;1.20;;;;;;;;;;5012194;28;20032;-78
2022/09/27 01:00:34;;;;;;;5.22;1.90;;;;;;;;;;5010894;28;20065;-78
2022/09/27 01:03:02;;;;;;;5.10;2.05;;;;;;;;;;5008682;28;20057;-78
2022/09/27 01:05:28;;;;;;;5.13;1.80;;;;;;;;;;5000678;28;20503;-77
2022/09/27 01:07:59;;;;;;;5.15;1.70;;;;;;;;;;5011829;28;20049;-78
2022/09/27 01:10:27;;;;;;;4.18;1.55;;;;;;;;;;5007485;28;20037;-78
2022/09/27 01:13:17;;;;;;;7.15;2.15;;;;;;;;;;5011090;28;21008;-78
2022/09/27 01:15:47;;;;;;;5.35;1.98;;;;;;;;;;5007548;28;20053;-78
2022/09/27 01:18:13;;;;;;;7.40;1.92;;;;;;;;;;5007356;28;20861;-78
2022/09/27 01:20:45;;;;;;;5.82;1.42;;;;;;;;;;5004688;28;20035;-78
2022/09/27 01:23:14;;;;;;;7.22;1.98;;;;;;;;;;5007635;28;20483;-78
2022/09/27 01:26:01;;;;;;;10.90;1.77;;;;;;;;;;5004542;28;20038;-78
2022/09/27 01:28:36;;;;;;;4.07;1.63;;;;;;;;;;4989589;28;20041;-78
2022/09/27 01:31:21;;;;;;;6.07;1.33;;;;;;;;;;5009052;28;20042;-78
2022/09/27 01:34:09;;;;;;;2.38;0.90;;;;;;;;;;5007218;28;20104;-78
2022/09/27 01:36:38;;;;;;;4.68;1.08;;;;;;;;;;5011283;28;20044;-78
2022/09/27 01:39:21;;;;;;;4.82;1.50;;;;;;;;;;5007882;28;20474;-78
2022/09/27 01:41:50;;;;;;;8.02;1.45;;;;;;;;;;5005171;28;20065;-78
2022/09/27 01:44:23;;;;;;;3.00;1.10;;;;;;;;;;5008812;28;20029;-78
2022/09/27 01:46:53;;;;;;;5.97;1.40;;;;;;;;;;5009728;28;20048;-78
2022/09/27 01:49:26;;;;;;;4.43;1.50;;;;;;;;;;5003704;28;20081;-78
2022/09/27 01:51:55;;;;;;;5.18;1.45;;;;;;;;;;5007997;28;20057;-78
2022/09/27 01:54:24;;;;;;;8.90;1.65;;;;;;;;;;5001139;28;20563;-78
2022/09/27 01:56:53;;;;;;;5.45;1.58;;;;;;;;;;5010500;28;20037;-78
2022/09/27 01:59:19;;;;;;;5.85;1.90;;;;;;;;;;5009148;28;20034;-79
2022/09/27 02:01:48;;;;;;;7.95;2.08;;;;;;;;;;5003748;28;20085;-78
2022/09/27 02:04:17;;;;;;;5.85;1.85;;;;;;;;;;5005099;28;20045;-78
2022/09/27 02:06:45;;;;;;;6.90;1.40;;;;;;;;;;5001873;28;20038;-78
2022/09/27 02:09:11;;;;;;;3.25;1.00;;;;;;;;;;5002726;28;20065;-78
2022/09/27 02:11:38;;;;;;;4.03;1.50;;;;;;;;;;5007024;28;20053;-78
2022/09/27 02:14:11;;;;;;;3.90;1.13;;;;;;;;;;5006717;28;20033;-78
2022/09/27 02:16:36;;;;;;;;;;;;;;;;;;5007260;28;20167;-78
2022/09/27 02:19:12;;;;;;;3.58;1.00;;;;;;;;;;5009447;28;20407;-78
2022/09/27 02:21:58;;;;;;;4.30;1.33;;;;;;;;;;5005639;28;20057;-79
2022/09/27 02:24:30;;;;;;;4.28;0.90;;;;;;;;;;4970496;28;20061;-78
2022/09/27 02:27:01;;;;;;;4.15;1.08;;;;;;;;;;5008853;28;20124;-78
2022/09/27 02:29:32;;;;;;;3.58;1.00;;;;;;;;;;5008523;28;20037;-78
2022/09/27 02:31:58;;;;;;;5.47;2.00;;;;;;;;;;5010239;28;20037;-78
2022/09/27 02:34:27;;;;;;;6.45;2.70;;;;;;;;;;5009762;28;20034;-78
2022/09/27 02:36:54;;;;;;;5.60;2.35;;;;;;;;;;4999788;28;20605;-78
2022/09/27 02:39:20;;;;;;;2.90;0.90;;;;;;;;;;4997284;28;20074;-78
2022/09/27 02:41:47;;;;;;;2.47;0.80;;;;;;;;;;4995009;28;20105;-78
2022/09/27 02:44:14;;;;;;;4.80;0.98;;;;;;;;;;5000191;28;20691;-78
2022/09/27 02:46:40;;;;;;;2.90;1.10;;;;;;;;;;4997426;28;20034;-78
2022/09/27 02:49:25;;;;;;;2.70;1.10;;;;;;;;;;5003866;28;20041;-78
2022/09/27 02:51:51;;;;;;;4.75;2.20;;;;;;;;;;5000890;28;20033;-78
2022/09/27 02:54:44;;;;;;;4.22;2.35;;;;;;;;;;4998299;28;20104;-78
2022/09/27 02:57:13;;;;;;;6.70;2.70;;;;;;;;;;5007107;28;20034;-78
2022/09/27 02:59:49;;;;;;;4.38;2.10;;;;;;;;;;5001962;28;20488;-76
2022/09/27 03:02:18;;;;;;;3.20;1.60;;;;;;;;;;4999742;28;20045;-78
2022/09/27 03:04:53;;;;;;;2.60;0.80;;;;;;;;;;5005061;28;20081;-78
2022/09/27 03:07:19;;;;;;;5.00;1.20;;;;;;;;;;5000145;28;20033;-78
2022/09/27 03:09:47;;;;;;;5.75;1.25;;;;;;;;;;5009146;28;20072;-78
2022/09/27 03:12:13;;;;;;;6.07;1.42;;;;;;;;;;5008178;28;20026;-79
2022/09/27 03:14:39;;;;;;;4.40;1.48;;;;;;;;;;5008620;28;20116;-78
2022/09/27 03:17:05;;;;;;;4.43;1.80;;;;;;;;;;5009536;28;20044;-78
2022/09/27 03:19:31;;;;;;;6.43;1.77;;;;;;;;;;4992558;28;20077;-78
2022/09/27 03:21:58;;;;;;;3.83;1.40;;;;;;;;;;4998485;28;20041;-78
2022/09/27 03:24:24;;;;;;;5.22;1.65;;;;;;;;;;5003215;28;20045;-78
2022/09/27 03:26:50;;;;;;;4.28;2.00;;;;;;;;;;5010024;28;20092;-78
2022/09/27 03:29:16;;;;;;;3.13;1.60;;;;;;;;;;5007956;28;20034;-78
2022/09/27 03:31:42;;;;;;;5.30;2.05;;;;;;;;;;4996565;28;20026;-78
2022/09/27 03:34:08;;;;;;;3.40;1.38;;;;;;;;;;5000775;28;20042;-78
2022/09/27 03:36:34;;;;;;;6.93;1.58;;;;;;;;;;5009569;28;20364;-78
2022/09/27 03:39:00;;;;;;;5.00;1.52;;;;;;;;;;5002466;28;20045;-78
2022/09/27 03:41:26;;;;;;;5.50;1.75;;;;;;;;;;5006722;28;20053;-78
2022/09/27 03:43:53;;;;;;;5.63;1.77;;;;;;;;;;5012508;28;20470;-77
2022/09/27 03:46:19;;;;;;;5.97;1.88;;;;;;;;;;5013015;28;20025;-78
2022/09/27 03:48:45;;;;;;;6.35;2.03;;;;;;;;;;5012350;28;20034;-77
2022/09/27 03:51:11;;;;;;;3.95;1.50;;;;;;;;;;5012617;28;20580;-78
2022/09/27 03:53:37;;;;;;;6.65;1.35;;;;;;;;;;5011313;28;20136;-78
2022/09/27 03:56:03;;;;;;;3.00;1.10;;;;;;;;;;5011547;28;20616;-78
2022/09/27 03:58:30;;;;;;;9.60;3.83;;;;;;;;;;5009770;28;20030;-78
2022/09/27 04:00:56;;;;;;;10.20;4.60;;;;;;;;;;5003595;28;20026;-78
2022/09/27 04:03:22;;;;;;;3.00;0.90;;;;;;;;;;5012633;28;20537;-78
2022/09/27 04:05:48;;;;;;;2.15;1.00;;;;;;;;;;5010831;28;20025;-77
2022/09/27 04:08:14;;;;;;;5.97;4.15;;;;;;;;;;5012975;28;20045;-77
2022/09/27 04:10:41;;;;;;;14.38;12.77;;;;;;;;;;5012187;28;20034;-78
2022/09/27 04:13:07;;;;;;;12.30;11.05;;;;;;;;;;5013146;28;20073;-78
2022/09/27 04:15:33;;;;;;;16.45;13.98;;;;;;;;;;5012031;28;20447;-78
2022/09/27 04:17:59;;;;;;;14.52;8.70;;;;;;;;;;5009345;28;20037;-77
2022/09/27 04:20:25;;;;;;;8.38;5.95;;;;;;;;;;5009093;28;20030;-77
2022/09/27 04:22:51;;;;;;;7.57;4.47;;;;;;;;;;5011940;28;20060;-78
2022/09/27 04:25:17;;;;;;;7.70;4.50;;;;;;;;;;5007448;28;20037;-77
2022/09/27 04:27:47;;;;;;;9.82;3.20;;;;;;;;;;4996936;28;20354;-78
2022/09/27 04:30:13;;;;;;;8.40;3.78;;;;;;;;;;5001774;28;20037;-78
2022/09/27 04:32:43;;;;;;;6.47;3.00;;;;;;;;;;5005179;28;20027;-78
2022/09/27 04:37:55;;;;;;;5.50;1.83;;;;;;;;;;5010573;28;20073;-78
2022/09/27 04:40:21;;;;;;;4.25;1.50;;;;;;;;;;5008634;28;20550;-78
2022/09/27 04:42:47;;;;;;;3.55;1.10;;;;;;;;;;5012225;28;20041;-78
2022/09/27 04:45:13;;;;;;;2.75;1.10;;;;;;;;;;5007977;28;20038;-78
2022/09/27 04:47:43;;;;;;;3.40;1.40;;;;;;;;;;5011884;28;20109;-78
2022/09/27 04:50:10;;;;;;;4.72;1.00;;;;;;;;;;5010090;28;20570;-78
2022/09/27 04:52:36;;;;;;;3.45;1.60;;;;;;;;;;5010025;28;20595;-78
2022/09/27 04:55:02;;;;;;;7.43;2.35;;;;;;;;;;5004472;28;20034;-78
2022/09/27 04:57:28;;;;;;;8.05;1.75;;;;;;;;;;5008737;28;20497;-78
2022/09/27 04:59:54;;;;;;;6.25;2.22;;;;;;;;;;4997427;28;20038;-78
2022/09/27 05:02:20;;;;;;;4.75;1.63;;;;;;;;;;5011263;28;20096;-78
2022/09/27 05:04:46;;;;;;;9.35;1.17;;;;;;;;;;5007682;28;20439;-78
2022/09/27 05:07:12;;;;;;;3.30;0.70;;;;;;;;;;4995827;28;20046;-78
2022/09/27 05:09:38;;;;;;;2.50;0.70;;;;;;;;;;5007477;28;20061;-78
2022/09/27 05:12:07;;;;;;;5.57;1.42;;;;;;;;;;5011925;28;20033;-77
2022/09/27 05:14:33;;;;;;;8.50;1.58;;;;;;;;;;5010614;28;20092;-78
2022/09/27 05:16:59;;;;;;;6.75;1.58;;;;;;;;;;5009729;28;20034;-78
2022/09/27 05:19:26;;;;;;;3.60;1.48;;;;;;;;;;5010913;28;20753;-78
2022/09/27 05:21:52;;;;;;;5.50;1.70;;;;;;;;;;5009285;28;20038;-78
2022/09/27 05:24:18;;;;;;;3.03;1.48;;;;;;;;;;5010009;28;20033;-78
2022/09/27 05:26:45;;;;;;;4.60;2.25;;;;;;;;;;5009630;28;20471;-77
2022/09/27 05:29:11;;;;;;;7.70;3.03;;;;;;;;;;5008062;28;20133;-78
2022/09/27 05:31:37;;;;;;;6.60;1.90;;;;;;;;;;5006400;28;20578;-77
2022/09/27 05:34:04;;;;;;;4.38;0.80;;;;;;;;;;5011367;28;20480;-77
2022/09/27 05:36:31;;;;;;;1.75;0.77;;;;;;;;;;5011509;28;20029;-77
2022/09/27 05:38:57;;;;;;;4.10;0.57;;;;;;;;;;5012314;28;20030;-78
2022/09/27 05:41:24;;;;;;;3.78;1.70;;;;;;;;;;5007113;28;20426;-77
2022/09/27 05:43:51;;;;;;;3.50;1.67;;;;;;;;;;4994853;28;20073;-78
2022/09/27 05:46:17;;;;;;;6.22;2.53;;;;;;;;;;5003634;28;20034;-78
2022/09/27 05:48:43;;;;;;;5.00;2.10;;;;;;;;;;5007741;28;20026;-78
2022/09/27 05:51:09;;;;;;;6.72;2.17;;;;;;;;;;5007544;28;20113;-78
2022/09/27 05:53:36;;;;;;;7.70;2.72;;;;;;;;;;5005645;28;20023;-77
2022/09/27 05:56:05;;;;;;;5.15;1.95;;;;;;;;;;5010467;28;20753;-78
2022/09/27 05:58:31;;;;;;;6.55;1.73;;;;;;;;;;5008650;28;20030;-78
2022/09/27 06:00:57;;;;;;;7.28;2.35;;;;;;;;;;4999656;28;20030;-77
2022/09/27 06:03:23;;;;;;;8.43;2.70;;;;;;;;;;5002826;28;20056;-77
2022/09/27 06:05:49;;;;;;;8.10;2.55;;;;;;;;;;5008022;28;20065;-78
2022/09/27 06:08:15;;;;;;;5.25;2.97;;;;;;;;;;5009225;28;20041;-77
2022/09/27 06:10:41;;;;;;;6.03;2.70;;;;;;;;;;5005619;28;20034;-78
2022/09/27 06:13:10;;;;;;;6.38;2.70;;;;;;;;;;5008963;28;20026;-78
2022/09/27 06:15:38;;;;;;;6.03;2.83;;;;;;;;;;5000684;28;20033;-77
2022/09/27 06:18:09;;;;;;;5.13;2.67;;;;;;;;;;5008236;28;20375;-78
2022/09/27 06:20:36;;;;;;;5.43;2.67;;;;;;;;;;5003345;28;20736;-77
2022/09/27 06:23:06;;;;;;;3.35;1.83;;;;;;;;;;5001662;28;20066;-77
2022/09/27 06:25:32;;;;;;;6.22;1.55;;;;;;;;;;5011267;28;20030;-78
2022/09/27 06:28:09;;;;;;;8.75;1.67;;;;;;;;;;5009547;28;20391;-77
2022/09/27 06:30:38;;;;;;;3.90;1.10;;;;;;;;;;4999108;28;20034;-77
2022/09/27 06:33:04;;;;;;;9.00;1.63;;;;;;;;;;5006030;28;20640;-77
2022/09/27 06:35:30;;;;;;;6.68;1.33;;;;;;;;;;5009381;28;20129;-78
2022/09/27 06:37:57;;;;;;;4.10;1.38;;;;;;;;;;5012234;28;20494;-78
2022/09/27 06:40:25;;;;;;;4.68;1.58;;;;;;;;;;5002279;28;20042;-78
2022/09/27 06:42:51;;;;;;;6.38;1.70;;;;;;;;;;5008489;28;20716;-78
2022/09/27 06:45:17;;;;;;;8.80;1.80;;;;;;;;;;5007851;28;20212;-78
2022/09/27 06:47:43;;;;;;;3.63;1.25;;;;;;;;;;5004663;28;20029;-78
2022/09/27 06:50:11;;;;;;;4.32;1.00;;;;;;;;;;5000096;28;20034;-78
2022/09/27 06:52:37;;;;;;;7.15;1.55;;;;;;;;;;5013838;28;20479;-78
2022/09/27 06:55:04;;;;;;;3.38;1.15;;;;;;;;;;5017922;28;20041;-77
2022/09/27 07:00:25;;;;;;;2.78;0.70;;;;;;;;;;5003391;28;20057;-78
2022/09/27 07:02:57;;;;;;;3.80;1.40;;;;;;;;;;5006099;28;20073;-77
2022/09/27 07:05:24;;;;;;;5.25;1.90;;;;;;;;;;4997363;28;21103;-78
2022/09/27 07:07:55;;;;;;;8.23;2.90;;;;;;;;;;5006505;28;20033;-78
2022/09/27 07:10:21;;;;;;;4.25;2.15;;;;;;;;;;4999756;28;20041;-78
2022/09/27 07:12:47;;;;;;;6.53;3.28;;;;;;;;;;5010858;28;20041;-77
2022/09/27 07:15:14;;;;;;;7.55;4.32;;;;;;;;;;5007445;28;20034;-78
2022/09/27 07:17:41;;;;;;;6.13;3.33;;;;;;;;;;5008599;28;20383;-78
2022/09/27 07:20:07;;;;;;;6.40;2.83;;;;;;;;;;5007548;28;20037;-78
2022/09/27 07:22:39;;;;;;;10.05;3.00;;;;;;;;;;5005687;28;20506;-77
2022/09/27 07:25:05;;;;;;;6.50;2.70;;;;;;;;;;5002304;28;20123;-77
2022/09/27 07:27:32;;;;;;;4.78;2.38;;;;;;;;;;5010352;28;20048;-78
2022/09/27 07:29:58;;;;;;;7.03;2.90;;;;;;;;;;5005928;28;20057;-77
2022/09/27 07:32:24;;;;;;;7.38;2.55;;;;;;;;;;5009105;28;20030;-78
2022/09/27 07:34:50;;;;;;;6.25;1.80;;;;;;;;;;5007992;28;20037;-78
2022/09/27 07:37:16;;;;;;;6.68;2.10;;;;;;;;;;5003983;28;20156;-78
2022/09/27 07:39:42;;;;;;;5.00;1.70;;;;;;;;;;5014422;28;20116;-78
2022/09/27 07:42:08;;;;;;;5.13;1.70;;;;;;;;;;5012674;28;20034;-78
2022/09/27 07:44:35;;;;;;;5.88;2.10;;;;;;;;;;5008204;28;20490;-78
2022/09/27 07:47:01;;;;;;;8.40;2.78;;;;;;;;;;5009379;28;20048;-78
2022/09/27 07:49:27;;;;;;;8.65;3.47;;;;;;;;;;5005641;28;20026;-78
2022/09/27 07:51:53;;;;;;;9.90;4.45;;;;;;;;;;5008167;28;20096;-78
2022/09/27 07:54:19;;;;;;;6.05;2.83;;;;;;;;;;5008921;28;20077;-78
2022/09/27 07:56:46;;;;;;;5.97;2.97;;;;;;;;;;5001430;28;20472;-78
2022/09/27 07:59:12;;;;;;;8.20;3.33;;;;;;;;;;4999726;28;20492;-78
2022/09/27 08:01:38;;;;;;;6.32;3.00;;;;;;;;;;4996915;28;20491;-78
2022/09/27 08:04:04;;;;;;;6.93;2.60;;;;;;;;;;5005003;28;20054;-78
2022/09/27 08:06:30;;;;;;;8.32;3.45;;;;;;;;;;4996639;28;20150;-78
2022/09/27 08:09:00;;;;;;;6.07;1.52;;;;;;;;;;5011433;28;20061;-78
2022/09/27 08:11:26;;;;;;;6.72;1.95;;;;;;;;;;5000735;28;20039;-78
2022/09/27 08:13:52;;;;;;;4.55;1.52;;;;;;;;;;5004720;28;20034;-78
2022/09/27 08:16:18;;;;;;;6.80;2.67;;;;;;;;;;5003922;28;20765;-78
2022/09/27 08:18:44;;;;;;;9.52;4.18;;;;;;;;;;4997197;28;20037;-78
2022/09/27 08:21:10;;;;;;;9.88;4.82;;;;;;;;;;5003328;28;20034;-78
2022/09/27 08:23:36;;;;;;;9.75;4.28;;;;;;;;;;5008004;28;20084;-77
2022/09/27 08:26:02;;;;;;;9.35;3.72;;;;;;;;;;4993741;28;20045;-78
2022/09/27 08:28:29;;;;;;;7.05;3.10;;;;;;;;;;5006775;28;20026;-78
2022/09/27 08:30:58;;;;;;;7.57;3.50;;;;;;;;;;5006887;28;20046;-78
2022/09/27 08:33:24;;;;;;;4.75;1.90;;;;;;;;;;5010619;28;20583;-78
2022/09/27 08:35:51;;;;;;;5.82;1.75;;;;;;;;;;4999785;28;20027;-78
2022/09/27 08:38:17;;;;;;;3.10;0.73;;;;;;;;;;5002762;28;20034;-78
2022/09/27 08:40:43;;;;;;;2.95;1.00;;;;;;;;;;5007259;28;20034;-78
2022/09/27 08:43:22;;;;;;;5.55;1.85;;;;;;;;;;5017709;28;21057;-77
2022/09/27 08:46:07;;;;;;;5.18;1.50;;;;;;;;;;5012069;28;20034;-78
2022/09/27 08:48:35;;;;;;;12.50;1.80;;;;;;;;;;5012509;28;20411;-77
2022/09/27 08:51:02;;;;;;;4.28;1.30;;;;;;;;;;5007165;28;20473;-77
2022/09/27 08:53:54;;;;;;;5.85;1.52;;;;;;;;;;5010939;28;20742;-78
2022/09/27 08:56:21;;;;;;;7.70;1.42;;;;;;;;;;5004497;28;20093;-77
2022/09/27 08:58:50;;;;;;;4.82;1.52;;;;;;;;;;5006293;28;20103;-77
2022/09/27 09:01:16;;;;;;;7.63;1.70;;;;;;;;;;5007423;28;20066;-78
2022/09/27 09:03:48;;;;;;;8.73;1.98;;;;;;;;;;5009291;28;20046;-77
2022/09/27 09:06:27;;;;;;;7.88;1.23;;;;;;;;;;5003974;28;20451;-77
2022/09/27 09:09:12;;;;;;;9.77;2.75;;;;;;;;;;5008659;28;20025;-77
2022/09/27 09:14:50;;;;;;;4.55;1.10;;;;;;;;;;5007971;28;20041;-77
2022/09/27 09:17:29;;;;;;;7.50;0.95;;;;;;;;;;5001778;28;20113;-77
2022/09/27 09:20:01;;;;;;;5.18;0.80;;;;;;;;;;5008342;28;20403;-77
2022/09/27 09:22:42;;;;;;;6.63;0.65;;;;;;;;;;5008297;28;20467;-77
2022/09/27 09:25:30;;;;;;;7.00;0.88;;;;;;;;;;5000709;28;20038;-77
2022/09/27 09:28:01;;;;;;;2.53;0.50;;;;;;;;;;5007036;28;20030;-77
2022/09/27 09:30:34;;;;;;;3.15;0.50;;;;;;;;;;5017256;28;20037;-77
2022/09/27 09:33:16;;;;;;;4.05;0.57;;;;;;;;;;5013726;28;20033;-77
2022/09/27 09:35:45;;;;;;;4.55;1.30;;;;;;;;;;5008801;28;20052;-77
2022/09/27 09:38:18;;;;;;;2.67;0.50;;;;;;;;;;5010831;28;20487;-78
2022/09/27 09:40:48;;;;;;;3.65;1.00;;;;;;;;;;5002866;28;20042;-77
2022/09/27 09:43:14;;;;;;;2.70;0.57;;;;;;;;;;5003821;28;20578;-77
2022/09/27 09:45:41;;;;;;;4.43;0.50;;;;;;;;;;5009974;28;20049;-77
2022/09/27 09:48:21;;;;;;;2.42;0.60;;;;;;;;;;5013313;28;20045;-77
2022/09/27 09:50:49;;;;;;;5.60;0.77;;;;;;;;;;5015569;28;20029;-77
2022/09/27 09:53:34;;;;;;;5.43;1.63;;;;;;;;;;5010229;28;20372;-77
2022/09/27 09:56:05;;;;;;;5.18;0.75;;;;;;;;;;5007550;28;20037;-77
2022/09/27 09:58:40;;;;;;;5.63;0.80;;;;;;;;;;5005365;28;20030;-78
2022/09/27 10:01:27;;;;;;;6.60;1.90;;;;;;;;;;5004514;28;20108;-77
2022/09/27 10:03:54;;;;;;;6.03;2.35;;;;;;;;;;5007827;28;20531;-78
2022/09/27 10:06:20;;;;;;;3.40;0.88;;;;;;;;;;4996766;28;20089;-77
2022/09/27 10:08:46;;;;;;;4.10;0.90;;;;;;;;;;5008653;28;20061;-77
2022/09/27 10:11:21;;;;;;;4.00;0.90;;;;;;;;;;5015330;28;20037;-77
2022/09/27 10:13:47;;;;;;;5.53;0.73;;;;;;;;;;5004804;28;20030;-77
2022/09/27 10:16:15;;;;;;;6.70;0.60;;;;;;;;;;5004524;28;20117;-77
2022/09/27 10:18:42;;;;;;;4.75;0.60;;;;;;;;;;5010894;28;20574;-77
2022/09/27 10:21:28;;;;;;;6.03;2.03;;;;;;;;;;5004863;28;20116;-77
2022/09/27 10:24:03;;;;;;;5.25;1.40;;;;;;;;;;5004528;28;20890;-77
2022/09/27 10:26:29;;;;;;;4.03;1.25;;;;;;;;;;4996633;28;20490;-77
2022/09/27 10:28:55;;;;;;;5.03;1.35;;;;;;;;;;4998487;28;20031;-77
2022/09/27 10:31:22;;;;;;;3.35;0.88;;;;;;;;;;5007433;28;20037;-77
2022/09/27 10:33:55;;;;;;;4.72;0.77;;;;;;;;;;5006018;28;20026;-77
2022/09/27 10:36:24;;;;;;;6.13;0.60;;;;;;;;;;5006313;28;20072;-77
2022/09/27 10:38:54;;;;;;;2.40;0.68;;;;;;;;;;5008274;28;20037;-77
2022/09/27 10:41:34;;;;;;;3.80;0.70;;;;;;;;;;5004515;28;20037;-77
2022/09/27 10:44:15;;;;;;;5.25;0.80;;;;;;;;;;5016783;28;20514;-77
2022/09/27 10:46:45;;;;;;;4.93;1.10;;;;;;;;;;4994113;28;20037;-77
2022/09/27 10:49:23;;;;;;;3.95;0.70;;;;;;;;;;5008652;28;20307;-77
2022/09/27 10:51:51;;;;;;;3.35;0.50;;;;;;;;;;5006890;28;20030;-77
2022/09/27 10:54:19;;;;;;;5.50;0.65;;;;;;;;;;4997170;28;20743;-77
2022/09/27 10:56:45;;;;;;;3.63;0.88;;;;;;;;;;5004232;28;20036;-77
2022/09/27 10:59:18;;;;;;;4.25;0.60;;;;;;;;;;5002224;28;20118;-77
2022/09/27 11:01:45;;;;;;;6.22;1.05;;;;;;;;;;5003942;28;21963;-77
2022/09/27 11:04:19;;;;;;;5.35;2.45;;;;;;;;;;5002216;28;20060;-77
2022/09/27 11:06:46;;;;;;;4.32;0.80;;;;;;;;;;4998545;28;20038;-77
2022/09/27 11:09:17;;;;;;;5.20;1.15;;;;;;;;;;5008143;28;20025;-77
2022/09/27 11:11:44;;;;;;;5.13;1.73;;;;;;;;;;4994775;28;20300;-77
2022/09/27 11:14:24;;;;;;;3.78;0.82;;;;;;;;;;5002527;28;20030;-77
2022/09/27 11:16:53;;;;;;;5.38;1.30;;;;;;;;;;5010563;28;20071;-76
2022/09/27 11:19:37;;;;;;;5.18;1.27;;;;;;;;;;5004155;28;20041;-77
2022/09/27 11:22:03;;;;;;;3.50;0.80;;;;;;;;;;5011721;28;20033;-76
2022/09/27 11:24:38;;;;;;;2.35;0.60;;;;;;;;;;5002761;28;20037;-76
2022/09/27 11:27:08;;;;;;;4.20;0.60;;;;;;;;;;4993450;28;20030;-76
2022/09/27 11:29:54;;;;;;;4.05;0.80;;;;;;;;;;5009222;28;20117;-76
2022/09/27 11:32:35;;;;;;;3.08;0.80;;;;;;;;;;5000346;28;20018;-77
2022/09/27 11:35:01;;;;;;;6.37;1.03;;;;;;;;;;5006197;28;20076;-76
2022/09/27 11:37:40;;;;;;;5.95;0.60;;;;;;;;;;5011219;28;21041;-76
2022/09/27 11:40:13;;;;;;;4.70;0.70;;;;;;;;;;5005816;28;20033;-76
2022/09/27 11:42:54;;;;;;;4.85;0.70;;;;;;;;;;5001408;28;20034;-76
2022/09/27 11:45:38;;;;;;;3.22;0.40;;;;;;;;;;5000927;28;20414;-76
2022/09/27 11:48:39;;;;;;;2.75;0.40;;;;;;;;;;5004595;28;20068;-76
2022/09/27 11:51:05;;;;;;;2.75;0.50;;;;;;;;;;4965684;28;20084;-77
2022/09/27 11:53:31;;;;;;;1.20;0.30;;;;;;;;;;4999211;28;20484;-76
2022/09/27 11:56:09;;;;;;;2.00;0.40;;;;;;;;;;5005744;28;20091;-76
2022/09/27 11:58:35;;;;;;;3.47;0.55;;;;;;;;;;4995168;28;20723;-77
2022/09/27 12:01:15;;;;;;;4.30;0.88;;;;;;;;;;5006508;28;20041;-76
2022/09/27 12:03:50;;;;;;;2.67;0.47;;;;;;;;;;5001952;28;20076;-76
2022/09/27 12:06:19;;;;;;;5.00;0.80;;;;;;;;;;5015432;28;20052;-77
2022/09/27 12:08:45;;;;;;;4.03;0.55;;;;;;;;;;5009716;28;20116;-76
2022/09/27 12:11:24;;;;;;;1.92;0.40;;;;;;;;;;4997783;28;20090;-76
2022/09/27 12:13:56;;;;;;;3.63;0.70;;;;;;;;;;5005576;28;20122;-76
2022/09/27 12:16:23;;;;;;;2.28;0.40;;;;;;;;;;5014535;28;20392;-76
2022/09/27 12:18:51;;;;;;;2.70;0.40;;;;;;;;;;5009091;28;20034;-76
2022/09/27 12:21:18;;;;;;;3.63;0.50;;;;;;;;;;5015769;28;20072;-76
2022/09/27 12:23:44;;;;;;;7.43;0.63;;;;;;;;;;5003693;28;20113;-76
2022/09/27 12:26:22;;;;;;;4.93;0.68;;;;;;;;;;5004282;28;20106;-76
2022/09/27 12:28:51;;;;;;;5.55;0.70;;;;;;;;;;5006550;28;20032;-76
2022/09/27 12:31:20;;;;;;;3.80;1.15;;;;;;;;;;5010138;28;20105;-76
2022/09/27 12:33:54;;;;;;;2.83;0.50;;;;;;;;;;5009200;28;20050;-76
2022/09/27 12:36:21;;;;;;;3.05;0.50;;;;;;;;;;5005085;28;20526;-76
2022/09/27 12:38:50;;;;;;;1.67;0.38;;;;;;;;;;5008728;28;20026;-77
2022/09/27 12:41:18;;;;;;;4.20;0.52;;;;;;;;;;5005241;28;20030;-76
2022/09/27 12:43:45;;;;;;;1.85;0.60;;;;;;;;;;5010555;28;20030;-76
2022/09/27 12:46:36;;;;;;;3.38;0.50;;;;;;;;;;5003998;28;20026;-76
2022/09/27 12:49:17;;;;;;;2.47;0.68;;;;;;;;;;5006132;28;20049;-76
2022/09/27 12:51:47;;;;;;;4.25;1.30;;;;;;;;;;5005164;28;20030;-77
2022/09/27 12:54:40;;;;;;;3.10;0.60;;;;;;;;;;5011010;28;20033;-76
2022/09/27 12:57:06;;;;;;;;;;;;;;;;;;4982396;28;20152;-76
2022/09/27 12:59:44;;;;;;;2.10;0.40;;;;;;;;;;5009419;28;19925;-76
2022/09/27 13:02:29;;;;;;;2.55;0.43;;;;;;;;;;4999390;28;20112;-77
2022/09/27 13:05:13;;;;;;;1.67;0.30;;;;;;;;;;5001101;28;20061;-77
2022/09/27 13:07:52;;;;;;;5.82;0.85;;;;;;;;;;5001194;28;20042;-76
2022/09/27 13:10:41;;;;;;;3.63;0.55;;;;;;;;;;5004811;28;20080;-76
2022/09/27 13:13:15;;;;;;;4.03;0.57;;;;;;;;;;5005558;28;20053;-76
2022/09/27 13:15:44;;;;;;;3.70;0.70;;;;;;;;;;5013810;28;20069;-77
2022/09/27 13:18:28;;;;;;;3.75;0.73;;;;;;;;;;5008435;28;20048;-77
2022/09/27 13:20:55;;;;;;;3.42;0.40;;;;;;;;;;5012001;28;20042;-77
2022/09/27 13:23:21;;;;;;;3.45;0.60;;;;;;;;;;5009133;28;20057;-76
2022/09/27 13:25:53;;;;;;;3.95;0.70;;;;;;;;;;5014253;28;20120;-76
2022/09/27 13:28:30;;;;;;;3.28;0.47;;;;;;;;;;5012051;28;20029;-76
2022/09/27 13:30:57;;;;;;;1.23;0.30;;;;;;;;;;5013125;28;20037;-77
2022/09/27 13:33:42;;;;;;;3.80;0.70;;;;;;;;;;5004186;28;20030;-76
2022/09/27 13:36:14;;;;;;;2.20;0.40;;;;;;;;;;4997500;28;20026;-76
2022/09/27 13:38:40;;;;;;;3.83;0.50;;;;;;;;;;5005787;28;20030;-76
2022/09/27 13:41:16;;;;;;;4.65;0.60;;;;;;;;;;5008175;28;20034;-76
2022/09/27 13:43:56;;;;;;;3.38;0.63;;;;;;;;;;5003274;28;20026;-76
2022/09/27 13:46:24;;;;;;;2.67;0.60;;;;;;;;;;5005625;28;20026;-76
2022/09/27 13:48:52;;;;;;;3.67;0.52;;;;;;;;;;5005558;28;20030;-76
2022/09/27 13:51:18;;;;;;;5.82;1.02;;;;;;;;;;5004873;28;20069;-76
2022/09/27 13:53:55;;;;;;;4.28;0.57;;;;;;;;;;5011951;28;20033;-76
2022/09/27 13:56:37;;;;;;;5.85;0.75;;;;;;;;;;5001718;28;20089;-76
2022/09/27 13:59:05;;;;;;;6.40;0.70;;;;;;;;;;5004415;28;20034;-76
2022/09/27 14:01:33;;;;;;;3.70;0.63;;;;;;;;;;5006371;28;20372;-76
2022/09/27 14:04:02;;;;;;;4.80;0.98;;;;;;;;;;5000732;28;20050;-76
2022/09/27 14:06:31;;;;;;;4.45;0.82;;;;;;;;;;5002029;28;20639;-76
2022/09/27 14:08:59;;;;;;;5.75;0.93;;;;;;;;;;5014006;28;20490;-76
2022/09/27 14:11:28;;;;;;;6.63;1.23;;;;;;;;;;5007574;28;20030;-76
2022/09/27 14:13:54;;;;;;;5.78;1.40;;;;;;;;;;5000163;28;20026;-76
2022/09/27 14:16:21;;;;;;;5.40;1.08;;;;;;;;;;5007227;28;20026;-76
2022/09/27 14:18:49;;;;;;;4.30;1.00;;;;;;;;;;5004589;28;20041;-76
2022/09/27 14:21:19;;;;;;;4.78;1.58;;;;;;;;;;5004584;28;20115;-76
2022/09/27 14:23:45;;;;;;;4.78;1.58;;;;;;;;;;5005098;28;20045;-76
2022/09/27 14:26:24;;;;;;;3.30;0.70;;;;;;;;;;5012981;28;20034;-77
2022/09/27 14:28:51;;;;;;;5.78;0.73;;;;;;;;;;5007873;28;20137;-76
2022/09/27 14:31:18;;;;;;;4.18;0.50;;;;;;;;;;5003878;28;20034;-76
2022/09/27 14:33:44;;;;;;;4.32;0.60;;;;;;;;;;5005807;28;20030;-76
2022/09/27 14:39:35;;;;;;;3.78;0.57;;;;;;;;;;4996486;28;20042;-76
2022/09/27 14:42:03;;;;;;;6.80;0.80;;;;;;;;;;5004797;28;20550;-76
2022/09/27 14:44:30;;;;;;;3.83;0.75;;;;;;;;;;5006305;28;20080;-76
2022/09/27 14:47:08;;;;;;;2.60;0.50;;;;;;;;;;5004325;28;20479;-76
2022/09/27 14:49:34;;;;;;;3.53;0.60;;;;;;;;;;5006513;28;20084;-77
2022/09/27 14:52:00;;;;;;;4.53;0.63;;;;;;;;;;4999706;28;20034;-76
2022/09/27 14:54:29;;;;;;;5.38;0.73;;;;;;;;;;5008051;28;20045;-76
2022/09/27 14:56:57;;;;;;;6.80;0.85;;;;;;;;;;5007259;28;20136;-77
2022/09/27 14:59:31;;;;;;;4.18;0.52;;;;;;;;;;5001396;28;20380;-77
2022/09/27 15:01:59;;;;;;;5.93;0.70;;;;;;;;;;5000721;28;20442;-76
2022/09/27 15:04:26;;;;;;;3.30;0.75;;;;;;;;;;5000364;28;20049;-76
2022/09/27 15:06:53;;;;;;;4.60;0.90;;;;;;;;;;5007237;28;20472;-76
2022/09/27 15:09:19;;;;;;;3.33;0.80;;;;;;;;;;5006183;28;20057;-76
2022/09/27 15:11:50;;;;;;;6.68;1.85;;;;;;;;;;4999790;28;20109;-76